createdAt,value
2019-05-07T00:01:29.124Z,97784.95
2019-05-07T00:03:55.724Z,97784.58
2019-05-07T00:06:23.054Z,97784.80
2019-05-07T00:08:52.156Z,97784.99
2019-05-07T00:11:18.619Z,97783.02
2019-05-07T00:13:45.403Z,97790.77
2019-05-07T00:16:12.824Z,97790.95
2019-05-07T00:18:39.684Z,97786.86
2019-05-07T00:21:06.383Z,97790.03
2019-05-07T00:23:33.169Z,97785.41
2019-05-07T00:26:02.387Z,97788.91
2019-05-07T00:28:29.270Z,97783.47
2019-05-07T00:30:55.787Z,97792.31
2019-05-07T00:33:22.939Z,97789.86
2019-05-07T00:35:56.778Z,97785.45
2019-05-07T00:38:25.497Z,97784.11
2019-05-07T00:40:59.139Z,97786.51
2019-05-07T00:43:28.797Z,97789.97
2019-05-07T00:45:58.302Z,97788.04
2019-05-07T00:48:24.841Z,97783.13
2019-05-07T00:50:56.359Z,97784.19
2019-05-07T00:53:23.715Z,97785.42
2019-05-07T00:55:52.557Z,97784.59
2019-05-07T00:58:19.567Z,97778.62
2019-05-07T01:00:46.112Z,97781.79
2019-05-07T01:03:13.025Z,97780.92
2019-05-07T01:05:39.797Z,97779.99
2019-05-07T01:08:06.372Z,97775.91
2019-05-07T01:10:33.139Z,97773.39
2019-05-07T01:12:59.776Z,97780.59
2019-05-07T01:15:31.107Z,97782.97
2019-05-07T01:17:55.287Z,97773.20
2019-05-07T01:20:22.210Z,97780.93
2019-05-07T01:22:48.952Z,97785.67
2019-05-07T01:25:15.904Z,97779.36
2019-05-07T01:27:42.824Z,97791.17
2019-05-07T01:30:09.902Z,97790.30
2019-05-07T01:32:43.456Z,97785.70
2019-05-07T01:35:16.554Z,97781.38
2019-05-07T01:37:43.248Z,97785.44
2019-05-07T01:40:12.113Z,97776.31
2019-05-07T01:42:38.461Z,97782.81
2019-05-07T01:45:06.251Z,97780.94
2019-05-07T01:47:33.277Z,97782.58
2019-05-07T01:50:02.799Z,97776.37
2019-05-07T01:52:28.526Z,97774.80
2019-05-07T01:54:55.284Z,97776.67
2019-05-07T01:57:23.115Z,97771.28
2019-05-07T01:59:52.744Z,97778.25
2019-05-07T02:02:25.785Z,97779.77
2019-05-07T02:05:03.208Z,97783.77
2019-05-07T02:07:34.105Z,97778.62
2019-05-07T02:10:12.147Z,97775.87
2019-05-07T02:12:39.308Z,97778.28
2019-05-07T02:15:06.361Z,97775.00
2019-05-07T02:17:33.063Z,97777.34
2019-05-07T02:19:59.936Z,97772.38
2019-05-07T02:22:27.167Z,97776.05
2019-05-07T02:24:53.804Z,97771.14
2019-05-07T02:27:22.041Z,97778.59
2019-05-07T02:29:48.916Z,97771.52
2019-05-07T02:32:15.453Z,97773.03
2019-05-07T02:34:44.231Z,97775.59
2019-05-07T02:37:13.905Z,97772.49
2019-05-07T02:40:00.254Z,97774.30
2019-05-07T02:42:26.823Z,97769.66
2019-05-07T02:45:04.244Z,97773.33
2019-05-07T02:47:33.204Z,97771.85
2019-05-07T02:50:04.682Z,97774.19
2019-05-07T02:53:06.329Z,97769.56
2019-05-07T02:55:37.308Z,97770.02
2019-05-07T02:58:04.086Z,97772.35
2019-05-07T03:00:33.423Z,97767.47
2019-05-07T03:02:59.417Z,97765.53
2019-05-07T03:05:26.157Z,97764.88
2019-05-07T03:07:53.759Z,97764.29
2019-05-07T03:10:23.844Z,97766.09
2019-05-07T03:12:49.098Z,97765.44
2019-05-07T03:15:15.990Z,97771.03
2019-05-07T03:17:43.222Z,97769.40
2019-05-07T03:20:14.182Z,97771.49
2019-05-07T03:22:42.857Z,97769.03
2019-05-07T03:25:15.833Z,97768.47
2019-05-07T03:27:43.239Z,97770.27
2019-05-07T03:30:29.925Z,97774.53
2019-05-07T03:33:07.282Z,97770.89
2019-05-07T03:35:38.327Z,97775.37
2019-05-07T03:38:05.500Z,97780.90
2019-05-07T03:40:33.627Z,97775.23
2019-05-07T03:43:02.907Z,97774.64
2019-05-07T03:45:54.120Z,97777.03
2019-05-07T03:48:23.860Z,97776.73
2019-05-07T03:50:52.904Z,97774.27
2019-05-07T03:53:19.382Z,97773.75
2019-05-07T03:55:46.319Z,97772.37
2019-05-07T03:58:14.558Z,97768.27
2019-05-07T04:00:44.154Z,97774.69
2019-05-07T04:03:13.948Z,97776.55
2019-05-07T04:05:39.517Z,97766.86
2019-05-07T04:08:06.338Z,97769.25
2019-05-07T04:10:33.988Z,97765.45
2019-05-07T04:13:04.197Z,97761.05
2019-05-07T04:15:32.757Z,97766.95
2019-05-07T04:17:58.292Z,97768.81
2019-05-07T04:20:25.078Z,97766.35
2019-05-07T04:22:53.603Z,97766.95
2019-05-07T04:25:46.274Z,97767.24
2019-05-07T04:28:35.532Z,97768.36
2019-05-07T04:31:03.070Z,97771.11
2019-05-07T04:33:34.825Z,97773.41
2019-05-07T04:36:13.854Z,97779.64
2019-05-07T04:38:39.391Z,97783.67
2019-05-07T04:41:06.032Z,97785.23
2019-05-07T04:43:33.688Z,97792.55
2019-05-07T04:46:03.197Z,97793.95
2019-05-07T04:48:29.453Z,97792.69
2019-05-07T04:50:58.498Z,97799.23
2019-05-07T04:53:25.193Z,97790.73
2019-05-07T04:55:53.645Z,97791.63
2019-05-07T04:58:23.985Z,97792.51
2019-05-07T05:00:49.355Z,97787.44
2019-05-07T05:03:24.170Z,97779.48
2019-05-07T05:05:53.261Z,97786.27
2019-05-07T05:08:19.795Z,97789.31
2019-05-07T05:10:46.508Z,97784.83
2019-05-07T05:13:13.307Z,97783.62
2019-05-07T05:15:39.846Z,97779.12
2019-05-07T05:18:06.490Z,97785.69
2019-05-07T05:20:39.316Z,97784.97
2019-05-07T05:23:16.708Z,97787.48
2019-05-07T05:25:43.369Z,97783.23
2019-05-07T05:28:12.424Z,97789.26
2019-05-07T05:30:42.627Z,97794.53
2019-05-07T05:33:09.383Z,97791.38
2019-05-07T05:35:36.174Z,97801.67
2019-05-07T05:38:03.155Z,97799.84
2019-05-07T05:40:31.953Z,97802.06
2019-05-07T05:43:07.966Z,97802.48
2019-05-07T05:45:37.416Z,97806.58
2019-05-07T05:48:08.023Z,97797.00
2019-05-07T05:50:42.295Z,97799.22
2019-05-07T05:53:21.859Z,97805.77
2019-05-07T05:55:49.504Z,97801.54
2019-05-07T05:58:24.350Z,97797.05
2019-05-07T06:01:19.167Z,97803.83
2019-05-07T06:04:12.745Z,97800.44
2019-05-07T06:07:01.188Z,97800.56
2019-05-07T06:09:27.942Z,97803.95
2019-05-07T06:12:05.911Z,97802.63
2019-05-07T06:14:55.031Z,97801.94
2019-05-07T06:17:42.566Z,97801.58
2019-05-07T06:20:27.157Z,97802.80
2019-05-07T06:23:12.894Z,97804.27
2019-05-07T06:25:42.818Z,97800.36
2019-05-07T06:28:09.383Z,97808.08
2019-05-07T06:30:36.211Z,97805.78
2019-05-07T06:33:02.999Z,97803.27
2019-05-07T06:35:29.799Z,97805.07
2019-05-07T06:37:56.541Z,97806.31
2019-05-07T06:40:42.366Z,97804.27
2019-05-07T06:43:23.570Z,97796.34
2019-05-07T06:45:52.867Z,97800.53
2019-05-07T06:48:34.773Z,97803.08
2019-05-07T06:50:57.350Z,97800.21
2019-05-07T06:53:28.097Z,97801.51
2019-05-07T06:55:55.341Z,97805.41
2019-05-07T06:58:23.560Z,97802.38
2019-05-07T07:01:12.125Z,97805.20
2019-05-07T07:03:58.263Z,97799.14
2019-05-07T07:06:27.416Z,97796.13
2019-05-07T07:09:13.276Z,97794.21
2019-05-07T07:18:51.292Z,97799.80
2019-05-07T07:22:52.089Z,97799.80
